sensor_id;sensor_type;location;lat;lon;timestamp;P1;durP1;ratioP1;P2;durP2;ratioP2
14520;SDS011;7347;50.844;4.490;2022-12-18T08:20:34;3.63;;;2.40;;
14520;SDS011;7347;50.844;4.490;2022-12-18T08:23:00;4.30;;;2.60;;
14520;SDS011;7347;50.844;4.490;2022-12-18T08:25:27;3.13;;;2.13;;
14520;SDS011;7347;50.844;4.490;2022-12-18T08:27:54;1.10;;;0.97;;
14520;SDS011;7347;50.844;4.490;2022-12-18T08:30:21;4.23;;;1.70;;
14520;SDS011;7347;50.844;4.490;2022-12-18T08:32:50;5.97;;;1.57;;
14520;SDS011;7347;50.844;4.490;2022-12-18T08:35:19;2.37;;;1.50;;
14520;SDS011;7347;50.844;4.490;2022-12-18T08:37:45;4.07;;;1.63;;
14520;SDS011;7347;50.844;4.490;2022-12-18T08:40:12;4.93;;;1.63;;
14520;SDS011;7347;50.844;4.490;2022-12-18T08:42:39;2.70;;;1.23;;
14520;SDS011;7347;50.844;4.490;2022-12-18T08:45:24;2.63;;;1.60;;
14520;SDS011;7347;50.844;4.490;2022-12-18T08:47:51;2.60;;;1.60;;
14520;SDS011;7347;50.844;4.490;2022-12-18T08:50:19;1.40;;;1.20;;
14520;SDS011;7347;50.844;4.490;2022-12-18T08:52:46;5.77;;;2.00;;
14520;SDS011;7347;50.844;4.490;2022-12-18T08:55:13;4.63;;;2.23;;
14520;SDS011;7347;50.844;4.490;2022-12-18T08:57:39;3.70;;;1.43;;
14520;SDS011;7347;50.844;4.490;2022-12-18T09:00:07;5.77;;;2.00;;
14520;SDS011;7347;50.844;4.490;2022-12-18T09:02:34;2.03;;;1.33;;
14520;SDS011;7347;50.844;4.490;2022-12-18T09:05:01;3.93;;;2.37;;
14520;SDS011;7347;50.844;4.490;2022-12-18T09:07:29;3.03;;;1.93;;
14520;SDS011;7347;50.844;4.490;2022-12-18T09:09:56;2.60;;;1.20;;
14520;SDS011;7347;50.844;4.490;2022-12-18T09:12:23;2.30;;;1.63;;
14520;SDS011;7347;50.844;4.490;2022-12-18T09:14:50;4.53;;;2.03;;
14520;SDS011;7347;50.844;4.490;2022-12-18T09:17:16;4.43;;;2.13;;
14520;SDS011;7347;50.844;4.490;2022-12-18T09:19:43;3.60;;;1.60;;
14520;SDS011;7347;50.844;4.490;2022-12-18T09:22:10;2.77;;;1.70;;
14520;SDS011;7347;50.844;4.490;2022-12-18T09:24:38;6.37;;;2.80;;
14520;SDS011;7347;50.844;4.490;2022-12-18T09:27:05;5.30;;;2.40;;
14520;SDS011;7347;50.844;4.490;2022-12-18T09:29:32;7.60;;;2.63;;
14520;SDS011;7347;50.844;4.490;2022-12-18T09:31:59;4.23;;;1.83;;
14520;SDS011;7347;50.844;4.490;2022-12-18T09:34:25;4.10;;;2.00;;
14520;SDS011;7347;50.844;4.490;2022-12-18T09:36:52;3.03;;;1.83;;
14520;SDS011;7347;50.844;4.490;2022-12-18T09:39:19;3.63;;;1.97;;
14520;SDS011;7347;50.844;4.490;2022-12-18T09:41:50;4.20;;;2.13;;
14520;SDS011;7347;50.844;4.490;2022-12-18T09:44:21;4.13;;;2.13;;
14520;SDS011;7347;50.844;4.490;2022-12-18T09:46:52;6.83;;;2.30;;
14520;SDS011;7347;50.844;4.490;2022-12-18T09:49:25;6.83;;;2.87;;
14520;SDS011;7347;50.844;4.490;2022-12-18T09:51:55;5.70;;;3.53;;
14520;SDS011;7347;50.844;4.490;2022-12-18T09:54:26;5.03;;;2.30;;
14520;SDS011;7347;50.844;4.490;2022-12-18T09:56:59;7.57;;;2.70;;
14520;SDS011;7347;50.844;4.490;2022-12-18T09:59:26;7.70;;;3.07;;
14520;SDS011;7347;50.844;4.490;2022-12-18T10:01:58;4.53;;;2.63;;
14520;SDS011;7347;50.844;4.490;2022-12-18T10:04:24;3.97;;;2.43;;
14520;SDS011;7347;50.844;4.490;2022-12-18T10:06:57;5.70;;;3.00;;
14520;SDS011;7347;50.844;4.490;2022-12-18T10:09:30;7.97;;;3.17;;
14520;SDS011;7347;50.844;4.490;2022-12-18T10:12:05;6.00;;;2.67;;
14520;SDS011;7347;50.844;4.490;2022-12-18T10:14:41;8.77;;;2.97;;
14520;SDS011;7347;50.844;4.490;2022-12-18T10:17:14;5.20;;;2.73;;
14520;SDS011;7347;50.844;4.490;2022-12-18T10:19:50;9.90;;;3.63;;
14520;SDS011;7347;50.844;4.490;2022-12-18T10:22:22;7.20;;;3.73;;
14520;SDS011;7347;50.844;4.490;2022-12-18T10:24:58;4.67;;;2.93;;
14520;SDS011;7347;50.844;4.490;2022-12-18T10:27:31;7.53;;;3.57;;
14520;SDS011;7347;50.844;4.490;2022-12-18T10:29:58;5.20;;;2.80;;
14520;SDS011;7347;50.844;4.490;2022-12-18T10:32:28;5.80;;;3.07;;
14520;SDS011;7347;50.844;4.490;2022-12-18T10:34:57;7.67;;;3.87;;
14520;SDS011;7347;50.844;4.490;2022-12-18T10:37:24;5.63;;;2.87;;
14520;SDS011;7347;50.844;4.490;2022-12-18T10:40:09;9.03;;;3.67;;
14520;SDS011;7347;50.844;4.490;2022-12-18T10:42:39;7.60;;;3.43;;
14520;SDS011;7347;50.844;4.490;2022-12-18T10:45:09;6.23;;;3.00;;
14520;SDS011;7347;50.844;4.490;2022-12-18T10:47:41;7.70;;;3.30;;
14520;SDS011;7347;50.844;4.490;2022-12-18T10:50:16;8.03;;;3.73;;
14520;SDS011;7347;50.844;4.490;2022-12-18T10:52:54;6.23;;;3.43;;
14520;SDS011;7347;50.844;4.490;2022-12-18T10:55:22;7.93;;;3.50;;
14520;SDS011;7347;50.844;4.490;2022-12-18T10:58:03;9.30;;;3.47;;
14520;SDS011;7347;50.844;4.490;2022-12-18T11:00:42;7.37;;;4.27;;
14520;SDS011;7347;50.844;4.490;2022-12-18T11:03:28;9.90;;;4.13;;
14520;SDS011;7347;50.844;4.490;2022-12-18T11:06:01;9.47;;;3.90;;
14520;SDS011;7347;50.844;4.490;2022-12-18T11:08:30;8.73;;;3.77;;
14520;SDS011;7347;50.844;4.490;2022-12-18T11:10:56;9.47;;;4.27;;
14520;SDS011;7347;50.844;4.490;2022-12-18T11:13:25;8.73;;;4.60;;
14520;SDS011;7347;50.844;4.490;2022-12-18T11:15:53;7.43;;;3.30;;
14520;SDS011;7347;50.844;4.490;2022-12-18T11:18:22;8.00;;;3.60;;
14520;SDS011;7347;50.844;4.490;2022-12-18T11:20:53;9.97;;;4.13;;
14520;SDS011;7347;50.844;4.490;2022-12-18T11:23:22;8.30;;;4.40;;
14520;SDS011;7347;50.844;4.490;2022-12-18T11:25:53;9.33;;;4.57;;
14520;SDS011;7347;50.844;4.490;2022-12-18T11:28:34;10.83;;;4.40;;
14520;SDS011;7347;50.844;4.490;2022-12-18T11:31:16;7.93;;;4.40;;
14520;SDS011;7347;50.844;4.490;2022-12-18T11:33:46;7.93;;;4.20;;
14520;SDS011;7347;50.844;4.490;2022-12-18T11:36:18;8.27;;;3.77;;
14520;SDS011;7347;50.844;4.490;2022-12-18T11:38:46;9.57;;;4.17;;
14520;SDS011;7347;50.844;4.490;2022-12-18T11:41:16;13.10;;;7.33;;
14520;SDS011;7347;50.844;4.490;2022-12-18T11:44:11;11.83;;;5.03;;
14520;SDS011;7347;50.844;4.490;2022-12-18T11:46:43;8.73;;;4.63;;
14520;SDS011;7347;50.844;4.490;2022-12-18T11:49:14;10.27;;;5.17;;
14520;SDS011;7347;50.844;4.490;2022-12-18T11:51:47;11.17;;;5.27;;
14520;SDS011;7347;50.844;4.490;2022-12-18T11:54:17;14.70;;;6.10;;
14520;SDS011;7347;50.844;4.490;2022-12-18T11:56:46;10.20;;;4.40;;
14520;SDS011;7347;50.844;4.490;2022-12-18T11:59:19;9.07;;;5.00;;
14520;SDS011;7347;50.844;4.490;2022-12-18T12:01:54;8.43;;;4.73;;
14520;SDS011;7347;50.844;4.490;2022-12-18T12:04:37;9.80;;;5.00;;
14520;SDS011;7347;50.844;4.490;2022-12-18T12:07:19;13.23;;;5.50;;
14520;SDS011;7347;50.844;4.490;2022-12-18T12:09:55;8.63;;;4.93;;
14520;SDS011;7347;50.844;4.490;2022-12-18T12:12:33;10.73;;;4.80;;
14520;SDS011;7347;50.844;4.490;2022-12-18T12:15:16;9.40;;;4.57;;
14520;SDS011;7347;50.844;4.490;2022-12-18T12:17:49;12.13;;;4.77;;
14520;SDS011;7347;50.844;4.490;2022-12-18T12:20:22;9.97;;;4.60;;
14520;SDS011;7347;50.844;4.490;2022-12-18T12:22:54;9.57;;;4.50;;
14520;SDS011;7347;50.844;4.490;2022-12-18T12:25:30;10.33;;;5.00;;
14520;SDS011;7347;50.844;4.490;2022-12-18T12:28:13;10.13;;;5.07;;
14520;SDS011;7347;50.844;4.490;2022-12-18T12:30:54;8.83;;;4.93;;
14520;SDS011;7347;50.844;4.490;2022-12-18T12:33:31;10.70;;;5.07;;
14520;SDS011;7347;50.844;4.490;2022-12-18T12:36:07;9.40;;;3.97;;
14520;SDS011;7347;50.844;4.490;2022-12-18T12:38:46;12.83;;;5.97;;
14520;SDS011;7347;50.844;4.490;2022-12-18T12:41:18;11.70;;;4.63;;
14520;SDS011;7347;50.844;4.490;2022-12-18T12:44:04;11.10;;;4.87;;
14520;SDS011;7347;50.844;4.490;2022-12-18T12:46:36;8.73;;;4.50;;
14520;SDS011;7347;50.844;4.490;2022-12-18T12:49:08;11.77;;;5.20;;
14520;SDS011;7347;50.844;4.490;2022-12-18T12:51:40;11.40;;;4.67;;
14520;SDS011;7347;50.844;4.490;2022-12-18T12:54:11;12.10;;;4.80;;
14520;SDS011;7347;50.844;4.490;2022-12-18T12:56:44;13.73;;;7.50;;
14520;SDS011;7347;50.844;4.490;2022-12-18T12:59:18;11.77;;;5.53;;
14520;SDS011;7347;50.844;4.490;2022-12-18T13:01:54;15.27;;;6.53;;
14520;SDS011;7347;50.844;4.490;2022-12-18T13:04:30;12.83;;;5.70;;
14520;SDS011;7347;50.844;4.490;2022-12-18T13:07:03;13.60;;;5.57;;
14520;SDS011;7347;50.844;4.490;2022-12-18T13:10:10;9.43;;;4.30;;
14520;SDS011;7347;50.844;4.490;2022-12-18T13:12:55;21.53;;;9.47;;
14520;SDS011;7347;50.844;4.490;2022-12-18T13:15:22;13.77;;;6.43;;
14520;SDS011;7347;50.844;4.490;2022-12-18T13:20:44;12.33;;;5.47;;
14520;SDS011;7347;50.844;4.490;2022-12-18T13:23:23;11.50;;;4.73;;
14520;SDS011;7347;50.844;4.490;2022-12-18T13:25:57;10.77;;;5.20;;
14520;SDS011;7347;50.844;4.490;2022-12-18T13:34:22;23.00;;;8.00;;
14520;SDS011;7347;50.844;4.490;2022-12-18T13:36:50;12.60;;;6.33;;
14520;SDS011;7347;50.844;4.490;2022-12-18T13:45:36;10.03;;;5.37;;
14520;SDS011;7347;50.844;4.490;2022-12-18T13:48:13;12.67;;;4.93;;
14520;SDS011;7347;50.844;4.490;2022-12-18T13:50:42;14.40;;;6.37;;
14520;SDS011;7347;50.844;4.490;2022-12-18T13:53:11;16.60;;;7.43;;
14520;SDS011;7347;50.844;4.490;2022-12-18T13:55:46;16.93;;;6.17;;
14520;SDS011;7347;50.844;4.490;2022-12-18T13:58:13;20.10;;;8.70;;
14520;SDS011;7347;50.844;4.490;2022-12-18T14:00:42;17.50;;;7.43;;
14520;SDS011;7347;50.844;4.490;2022-12-18T14:03:16;23.10;;;8.03;;
14520;SDS011;7347;50.844;4.490;2022-12-18T14:05:45;15.23;;;6.03;;
14520;SDS011;7347;50.844;4.490;2022-12-18T14:08:18;15.67;;;5.30;;
14520;SDS011;7347;50.844;4.490;2022-12-18T14:10:45;13.37;;;5.27;;
14520;SDS011;7347;50.844;4.490;2022-12-18T14:13:15;22.50;;;9.97;;
14520;SDS011;7347;50.844;4.490;2022-12-18T14:15:51;20.03;;;7.97;;
14520;SDS011;7347;50.844;4.490;2022-12-18T14:18:19;16.13;;;6.60;;
14520;SDS011;7347;50.844;4.490;2022-12-18T14:20:49;15.83;;;5.93;;
14520;SDS011;7347;50.844;4.490;2022-12-18T14:23:31;15.70;;;6.90;;
14520;SDS011;7347;50.844;4.490;2022-12-18T14:25:59;17.37;;;7.53;;
14520;SDS011;7347;50.844;4.490;2022-12-18T14:28:27;12.67;;;6.43;;
14520;SDS011;7347;50.844;4.490;2022-12-18T14:30:56;17.03;;;6.43;;
14520;SDS011;7347;50.844;4.490;2022-12-18T14:33:23;13.57;;;6.40;;
14520;SDS011;7347;50.844;4.490;2022-12-18T14:35:53;18.37;;;7.60;;
14520;SDS011;7347;50.844;4.490;2022-12-18T14:38:24;18.43;;;7.67;;
14520;SDS011;7347;50.844;4.490;2022-12-18T14:40:56;13.00;;;5.07;;
14520;SDS011;7347;50.844;4.490;2022-12-18T14:43:24;15.77;;;6.83;;
14520;SDS011;7347;50.844;4.490;2022-12-18T14:45:52;15.03;;;6.37;;
14520;SDS011;7347;50.844;4.490;2022-12-18T14:48:21;12.90;;;6.07;;
14520;SDS011;7347;50.844;4.490;2022-12-18T14:50:56;13.83;;;7.20;;
14520;SDS011;7347;50.844;4.490;2022-12-18T14:53:28;13.53;;;5.93;;
14520;SDS011;7347;50.844;4.490;2022-12-18T14:55:59;15.80;;;5.90;;
14520;SDS011;7347;50.844;4.490;2022-12-18T14:58:27;12.83;;;6.07;;
14520;SDS011;7347;50.844;4.490;2022-12-18T15:00:54;20.60;;;7.40;;
14520;SDS011;7347;50.844;4.490;2022-12-18T15:03:22;15.70;;;7.37;;
14520;SDS011;7347;50.844;4.490;2022-12-18T15:05:49;12.30;;;6.83;;
14520;SDS011;7347;50.844;4.490;2022-12-18T15:08:30;17.37;;;7.17;;
14520;SDS011;7347;50.844;4.490;2022-12-18T15:11:00;14.40;;;6.30;;
14520;SDS011;7347;50.844;4.490;2022-12-18T15:13:27;20.53;;;8.00;;
14520;SDS011;7347;50.844;4.490;2022-12-18T15:15:54;17.07;;;6.80;;
14520;SDS011;7347;50.844;4.490;2022-12-18T15:18:26;19.67;;;7.63;;
14520;SDS011;7347;50.844;4.490;2022-12-18T15:20:56;15.33;;;6.80;;
14520;SDS011;7347;50.844;4.490;2022-12-18T15:23:25;15.83;;;7.63;;
14520;SDS011;7347;50.844;4.490;2022-12-18T15:25:57;12.97;;;6.00;;
14520;SDS011;7347;50.844;4.490;2022-12-18T15:28:26;14.63;;;6.70;;
14520;SDS011;7347;50.844;4.490;2022-12-18T15:31:04;16.97;;;6.80;;
14520;SDS011;7347;50.844;4.490;2022-12-18T15:33:59;14.43;;;6.30;;
14520;SDS011;7347;50.844;4.490;2022-12-18T15:36:28;15.43;;;6.10;;
14520;SDS011;7347;50.844;4.490;2022-12-18T15:38:56;12.43;;;6.30;;
14520;SDS011;7347;50.844;4.490;2022-12-18T15:41:23;15.47;;;6.10;;
14520;SDS011;7347;50.844;4.490;2022-12-18T15:43:51;16.47;;;6.53;;
14520;SDS011;7347;50.844;4.490;2022-12-18T15:46:19;21.73;;;7.73;;
14520;SDS011;7347;50.844;4.490;2022-12-18T15:48:47;23.77;;;7.30;;
14520;SDS011;7347;50.844;4.490;2022-12-18T15:51:17;18.90;;;6.70;;
14520;SDS011;7347;50.844;4.490;2022-12-18T15:53:46;17.47;;;7.47;;
14520;SDS011;7347;50.844;4.490;2022-12-18T15:56:14;15.73;;;6.90;;
14520;SDS011;7347;50.844;4.490;2022-12-18T15:58:59;16.77;;;7.30;;
14520;SDS011;7347;50.844;4.490;2022-12-18T16:01:27;16.93;;;7.10;;
14520;SDS011;7347;50.844;4.490;2022-12-18T16:03:55;17.53;;;7.13;;
14520;SDS011;7347;50.844;4.490;2022-12-18T16:06:23;15.37;;;6.23;;
14520;SDS011;7347;50.844;4.490;2022-12-18T16:08:50;14.93;;;6.50;;
14520;SDS011;7347;50.844;4.490;2022-12-18T16:11:20;15.83;;;6.60;;
14520;SDS011;7347;50.844;4.490;2022-12-18T16:14:03;16.10;;;6.57;;
14520;SDS011;7347;50.844;4.490;2022-12-18T16:16:30;22.27;;;7.83;;
14520;SDS011;7347;50.844;4.490;2022-12-18T16:18:57;13.77;;;6.37;;
14520;SDS011;7347;50.844;4.490;2022-12-18T16:21:25;21.90;;;7.23;;
14520;SDS011;7347;50.844;4.490;2022-12-18T16:23:52;17.73;;;7.93;;
14520;SDS011;7347;50.844;4.490;2022-12-18T16:26:19;13.00;;;5.83;;
14520;SDS011;7347;50.844;4.490;2022-12-18T16:28:45;16.20;;;7.33;;
14520;SDS011;7347;50.844;4.490;2022-12-18T16:31:12;14.30;;;6.07;;
14520;SDS011;7347;50.844;4.490;2022-12-18T16:33:39;10.70;;;4.93;;
14520;SDS011;7347;50.844;4.490;2022-12-18T16:36:06;18.40;;;6.70;;
14520;SDS011;7347;50.844;4.490;2022-12-18T16:38:34;17.20;;;6.73;;
14520;SDS011;7347;50.844;4.490;2022-12-18T16:41:01;16.03;;;7.20;;
14520;SDS011;7347;50.844;4.490;2022-12-18T16:43:48;20.33;;;6.87;;
14520;SDS011;7347;50.844;4.490;2022-12-18T16:46:15;15.33;;;6.27;;
14520;SDS011;7347;50.844;4.490;2022-12-18T16:48:42;17.47;;;6.30;;
14520;SDS011;7347;50.844;4.490;2022-12-18T16:51:09;15.37;;;6.63;;
14520;SDS011;7347;50.844;4.490;2022-12-18T16:53:37;14.73;;;6.20;;
14520;SDS011;7347;50.844;4.490;2022-12-18T16:56:04;12.67;;;6.03;;
14520;SDS011;7347;50.844;4.490;2022-12-18T16:58:31;20.83;;;10.40;;
14520;SDS011;7347;50.844;4.490;2022-12-18T17:00:58;19.00;;;6.67;;
14520;SDS011;7347;50.844;4.490;2022-12-18T17:03:24;14.27;;;6.90;;
14520;SDS011;7347;50.844;4.490;2022-12-18T17:05:51;13.23;;;5.87;;
14520;SDS011;7347;50.844;4.490;2022-12-18T17:08:18;13.00;;;5.80;;
14520;SDS011;7347;50.844;4.490;2022-12-18T17:10:46;14.30;;;6.17;;
14520;SDS011;7347;50.844;4.490;2022-12-18T17:13:13;15.53;;;5.47;;
14520;SDS011;7347;50.844;4.490;2022-12-18T17:15:40;18.80;;;7.00;;
14520;SDS011;7347;50.844;4.490;2022-12-18T17:18:07;16.13;;;6.27;;
14520;SDS011;7347;50.844;4.490;2022-12-18T17:20:33;12.47;;;5.27;;
14520;SDS011;7347;50.844;4.490;2022-12-18T17:23:00;16.13;;;6.73;;
14520;SDS011;7347;50.844;4.490;2022-12-18T17:25:27;14.87;;;6.33;;
14520;SDS011;7347;50.844;4.490;2022-12-18T17:27:55;17.50;;;6.47;;
14520;SDS011;7347;50.844;4.490;2022-12-18T17:30:22;18.73;;;6.17;;
14520;SDS011;7347;50.844;4.490;2022-12-18T17:32:49;16.23;;;6.60;;
14520;SDS011;7347;50.844;4.490;2022-12-18T17:35:15;19.13;;;7.67;;
14520;SDS011;7347;50.844;4.490;2022-12-18T17:37:42;16.47;;;6.50;;
14520;SDS011;7347;50.844;4.490;2022-12-18T17:40:09;16.50;;;7.30;;
14520;SDS011;7347;50.844;4.490;2022-12-18T17:42:37;19.60;;;6.93;;
14520;SDS011;7347;50.844;4.490;2022-12-18T17:45:05;17.23;;;7.10;;
14520;SDS011;7347;50.844;4.490;2022-12-18T17:47:33;15.73;;;6.93;;
14520;SDS011;7347;50.844;4.490;2022-12-18T17:50:00;18.17;;;7.53;;
14520;SDS011;7347;50.844;4.490;2022-12-18T17:52:26;15.70;;;6.57;;
14520;SDS011;7347;50.844;4.490;2022-12-18T17:54:53;16.57;;;6.57;;
14520;SDS011;7347;50.844;4.490;2022-12-18T17:57:20;13.57;;;5.37;;
14520;SDS011;7347;50.844;4.490;2022-12-18T17:59:47;14.37;;;6.07;;
14520;SDS011;7347;50.844;4.490;2022-12-18T18:02:15;15.30;;;6.57;;
14520;SDS011;7347;50.844;4.490;2022-12-18T18:04:42;18.33;;;6.50;;
14520;SDS011;7347;50.844;4.490;2022-12-18T18:07:09;19.53;;;7.03;;
14520;SDS011;7347;50.844;4.490;2022-12-18T18:09:35;12.90;;;5.63;;
14520;SDS011;7347;50.844;4.490;2022-12-18T18:12:02;16.83;;;5.83;;
14520;SDS011;7347;50.844;4.490;2022-12-18T18:14:47;17.27;;;7.60;;
14520;SDS011;7347;50.844;4.490;2022-12-18T18:17:13;23.37;;;6.80;;
14520;SDS011;7347;50.844;4.490;2022-12-18T18:19:42;21.07;;;7.57;;
14520;SDS011;7347;50.844;4.490;2022-12-18T18:22:08;14.93;;;6.57;;
14520;SDS011;7347;50.844;4.490;2022-12-18T18:24:35;16.47;;;7.70;;
14520;SDS011;7347;50.844;4.490;2022-12-18T18:27:02;16.73;;;6.27;;
14520;SDS011;7347;50.844;4.490;2022-12-18T18:29:29;18.73;;;6.20;;
14520;SDS011;7347;50.844;4.490;2022-12-18T18:31:56;14.17;;;6.43;;
14520;SDS011;7347;50.844;4.490;2022-12-18T18:34:25;16.73;;;6.30;;
14520;SDS011;7347;50.844;4.490;2022-12-18T18:36:53;15.23;;;6.50;;
14520;SDS011;7347;50.844;4.490;2022-12-18T18:39:20;14.03;;;6.03;;
14520;SDS011;7347;50.844;4.490;2022-12-18T18:41:47;17.83;;;5.83;;
14520;SDS011;7347;50.844;4.490;2022-12-18T18:44:14;21.83;;;7.53;;
14520;SDS011;7347;50.844;4.490;2022-12-18T18:46:41;18.13;;;7.37;;
14520;SDS011;7347;50.844;4.490;2022-12-18T18:49:08;18.37;;;6.63;;
14520;SDS011;7347;50.844;4.490;2022-12-18T18:51:37;13.77;;;5.87;;
14520;SDS011;7347;50.844;4.490;2022-12-18T18:54:04;15.93;;;6.60;;
14520;SDS011;7347;50.844;4.490;2022-12-18T18:56:31;17.27;;;6.73;;
14520;SDS011;7347;50.844;4.490;2022-12-18T18:58:58;16.53;;;6.67;;
14520;SDS011;7347;50.844;4.490;2022-12-18T19:01:25;35.87;;;10.73;;
14520;SDS011;7347;50.844;4.490;2022-12-18T19:03:52;26.90;;;9.93;;
14520;SDS011;7347;50.844;4.490;2022-12-18T19:06:20;29.60;;;11.23;;
14520;SDS011;7347;50.844;4.490;2022-12-18T19:08:50;12.10;;;6.07;;
14520;SDS011;7347;50.844;4.490;2022-12-18T19:11:18;15.60;;;7.17;;
14520;SDS011;7347;50.844;4.490;2022-12-18T19:14:03;14.33;;;5.23;;
14520;SDS011;7347;50.844;4.490;2022-12-18T19:16:32;23.67;;;8.00;;
14520;SDS011;7347;50.844;4.490;2022-12-18T19:18:59;15.57;;;6.40;;
14520;SDS011;7347;50.844;4.490;2022-12-18T19:21:26;24.93;;;8.07;;
14520;SDS011;7347;50.844;4.490;2022-12-18T19:23:55;16.87;;;8.27;;
14520;SDS011;7347;50.844;4.490;2022-12-18T19:26:22;33.70;;;12.07;;
14520;SDS011;7347;50.844;4.490;2022-12-18T19:28:49;11.57;;;5.90;;
14520;SDS011;7347;50.844;4.490;2022-12-18T19:31:17;32.47;;;13.60;;
14520;SDS011;7347;50.844;4.490;2022-12-18T19:33:45;24.17;;;10.27;;
14520;SDS011;7347;50.844;4.490;2022-12-18T19:36:13;26.77;;;7.43;;
14520;SDS011;7347;50.844;4.490;2022-12-18T19:38:44;23.47;;;9.13;;
14520;SDS011;7347;50.844;4.490;2022-12-18T19:41:12;18.30;;;7.60;;
14520;SDS011;7347;50.844;4.490;2022-12-18T19:43:39;23.53;;;9.47;;
14520;SDS011;7347;50.844;4.490;2022-12-18T19:46:06;26.33;;;9.67;;
14520;SDS011;7347;50.844;4.490;2022-12-18T19:48:36;20.23;;;7.23;;
14520;SDS011;7347;50.844;4.490;2022-12-18T19:51:03;27.33;;;9.37;;
14520;SDS011;7347;50.844;4.490;2022-12-18T19:53:31;17.20;;;6.90;;
14520;SDS011;7347;50.844;4.490;2022-12-18T19:55:58;16.97;;;7.20;;
14520;SDS011;7347;50.844;4.490;2022-12-18T19:58:31;22.90;;;9.27;;
14520;SDS011;7347;50.844;4.490;2022-12-18T20:00:57;31.03;;;11.07;;
14520;SDS011;7347;50.844;4.490;2022-12-18T20:03:24;22.47;;;8.43;;
14520;SDS011;7347;50.844;4.490;2022-12-18T20:05:51;24.90;;;9.07;;
14520;SDS011;7347;50.844;4.490;2022-12-18T20:08:18;24.07;;;8.83;;
14520;SDS011;7347;50.844;4.490;2022-12-18T20:10:45;27.83;;;10.83;;
14520;SDS011;7347;50.844;4.490;2022-12-18T20:13:13;25.80;;;9.43;;
14520;SDS011;7347;50.844;4.490;2022-12-18T20:15:41;21.87;;;9.43;;
14520;SDS011;7347;50.844;4.490;2022-12-18T20:18:08;17.23;;;7.80;;
14520;SDS011;7347;50.844;4.490;2022-12-18T20:20:35;20.60;;;8.87;;
14520;SDS011;7347;50.844;4.490;2022-12-18T20:23:02;22.20;;;9.17;;
14520;SDS011;7347;50.844;4.490;2022-12-18T20:25:29;26.83;;;9.53;;
14520;SDS011;7347;50.844;4.490;2022-12-18T20:27:56;15.67;;;6.57;;
14520;SDS011;7347;50.844;4.490;2022-12-18T20:30:22;27.37;;;8.33;;
14520;SDS011;7347;50.844;4.490;2022-12-18T20:32:51;19.40;;;6.30;;
14520;SDS011;7347;50.844;4.490;2022-12-18T20:35:17;23.00;;;8.40;;
14520;SDS011;7347;50.844;4.490;2022-12-18T20:37:44;22.87;;;9.03;;
14520;SDS011;7347;50.844;4.490;2022-12-18T20:40:11;17.10;;;7.57;;
14520;SDS011;7347;50.844;4.490;2022-12-18T20:42:38;26.80;;;9.07;;
14520;SDS011;7347;50.844;4.490;2022-12-18T20:45:05;18.17;;;7.03;;
14520;SDS011;7347;50.844;4.490;2022-12-18T20:47:33;17.23;;;7.03;;
14520;SDS011;7347;50.844;4.490;2022-12-18T20:50:01;15.90;;;5.73;;
14520;SDS011;7347;50.844;4.490;2022-12-18T20:52:28;16.57;;;5.80;;
14520;SDS011;7347;50.844;4.490;2022-12-18T20:54:54;13.30;;;6.30;;
14520;SDS011;7347;50.844;4.490;2022-12-18T20:57:22;14.00;;;5.93;;
14520;SDS011;7347;50.844;4.490;2022-12-18T20:59:49;13.27;;;4.60;;
14520;SDS011;7347;50.844;4.490;2022-12-18T21:02:16;15.30;;;6.50;;
14520;SDS011;7347;50.844;4.490;2022-12-18T21:04:47;13.03;;;6.07;;
14520;SDS011;7347;50.844;4.490;2022-12-18T21:07:15;13.70;;;6.00;;
14520;SDS011;7347;50.844;4.490;2022-12-18T21:09:42;14.17;;;5.10;;
14520;SDS011;7347;50.844;4.490;2022-12-18T21:12:10;13.93;;;5.73;;
14520;SDS011;7347;50.844;4.490;2022-12-18T21:14:57;14.03;;;6.80;;
14520;SDS011;7347;50.844;4.490;2022-12-18T21:17:24;20.97;;;9.70;;
14520;SDS011;7347;50.844;4.490;2022-12-18T21:19:51;23.67;;;7.33;;
14520;SDS011;7347;50.844;4.490;2022-12-18T21:22:19;20.03;;;7.20;;
14520;SDS011;7347;50.844;4.490;2022-12-18T21:24:46;13.77;;;5.33;;
14520;SDS011;7347;50.844;4.490;2022-12-18T21:27:13;19.87;;;6.87;;
14520;SDS011;7347;50.844;4.490;2022-12-18T21:29:40;10.20;;;4.93;;
14520;SDS011;7347;50.844;4.490;2022-12-18T21:32:07;17.20;;;7.20;;
14520;SDS011;7347;50.844;4.490;2022-12-18T21:34:35;13.10;;;5.57;;
14520;SDS011;7347;50.844;4.490;2022-12-18T21:37:02;19.37;;;6.50;;
14520;SDS011;7347;50.844;4.490;2022-12-18T21:39:30;14.30;;;5.57;;
14520;SDS011;7347;50.844;4.490;2022-12-18T21:41:57;22.10;;;7.37;;
14520;SDS011;7347;50.844;4.490;2022-12-18T21:44:42;11.93;;;5.73;;
14520;SDS011;7347;50.844;4.490;2022-12-18T21:47:09;16.27;;;6.87;;
14520;SDS011;7347;50.844;4.490;2022-12-18T21:49:36;17.20;;;6.90;;
14520;SDS011;7347;50.844;4.490;2022-12-18T21:52:03;21.10;;;7.20;;
14520;SDS011;7347;50.844;4.490;2022-12-18T21:54:32;14.50;;;6.53;;
14520;SDS011;7347;50.844;4.490;2022-12-18T21:57:00;11.63;;;5.87;;
14520;SDS011;7347;50.844;4.490;2022-12-18T21:59:28;16.27;;;5.63;;
14520;SDS011;7347;50.844;4.490;2022-12-18T22:01:58;13.17;;;5.83;;
14520;SDS011;7347;50.844;4.490;2022-12-18T22:04:25;12.37;;;5.53;;
14520;SDS011;7347;50.844;4.490;2022-12-18T22:06:52;10.87;;;5.37;;
14520;SDS011;7347;50.844;4.490;2022-12-18T22:09:20;13.43;;;5.70;;
14520;SDS011;7347;50.844;4.490;2022-12-18T22:11:49;17.33;;;6.03;;
14520;SDS011;7347;50.844;4.490;2022-12-18T22:14:17;19.10;;;7.20;;
